sensor_id;sensor_type;location;lat;lon;timestamp;P1;durP1;ratioP1;P2;durP2;ratioP2
1378;SDS011;683;48.738;9.226;2023-05-07T00:00:00;4.03;;;3.73;;
1378;SDS011;683;48.738;9.226;2023-05-07T00:02:31;3.70;;;3.33;;
1378;SDS011;683;48.738;9.226;2023-05-07T00:04:58;4.13;;;3.73;;
1378;SDS011;683;48.738;9.226;2023-05-07T00:07:26;3.50;;;3.20;;
1378;SDS011;683;48.738;9.226;2023-05-07T00:09:53;4.57;;;3.70;;
1378;SDS011;683;48.738;9.226;2023-05-07T00:12:21;3.70;;;3.40;;
1378;SDS011;683;48.738;9.226;2023-05-07T00:14:49;3.00;;;2.80;;
1378;SDS011;683;48.738;9.226;2023-05-07T00:17:18;3.60;;;3.27;;
1378;SDS011;683;48.738;9.226;2023-05-07T00:19:45;3.57;;;3.27;;
1378;SDS011;683;48.738;9.226;2023-05-07T00:22:13;3.93;;;3.53;;
1378;SDS011;683;48.738;9.226;2023-05-07T00:24:41;4.67;;;2.57;;
1378;SDS011;683;48.738;9.226;2023-05-07T00:27:08;2.60;;;2.40;;
1378;SDS011;683;48.738;9.226;2023-05-07T00:29:36;3.87;;;3.03;;
1378;SDS011;683;48.738;9.226;2023-05-07T00:32:04;3.77;;;2.70;;
1378;SDS011;683;48.738;9.226;2023-05-07T00:34:33;3.23;;;3.03;;
1378;SDS011;683;48.738;9.226;2023-05-07T00:37:01;3.40;;;3.10;;
1378;SDS011;683;48.738;9.226;2023-05-07T00:39:29;2.83;;;2.53;;
1378;SDS011;683;48.738;9.226;2023-05-07T00:41:56;2.60;;;2.40;;
1378;SDS011;683;48.738;9.226;2023-05-07T00:44:24;4.50;;;3.10;;
1378;SDS011;683;48.738;9.226;2023-05-07T00:46:52;3.73;;;3.40;;
1378;SDS011;683;48.738;9.226;2023-05-07T00:49:20;3.40;;;2.53;;
1378;SDS011;683;48.738;9.226;2023-05-07T00:51:49;3.10;;;2.60;;
1378;SDS011;683;48.738;9.226;2023-05-07T00:54:17;3.07;;;2.70;;
1378;SDS011;683;48.738;9.226;2023-05-07T00:56:46;3.47;;;2.60;;
1378;SDS011;683;48.738;9.226;2023-05-07T00:59:13;3.57;;;3.30;;
1378;SDS011;683;48.738;9.226;2023-05-07T01:01:41;3.30;;;3.00;;
1378;SDS011;683;48.738;9.226;2023-05-07T01:04:09;3.03;;;2.70;;
1378;SDS011;683;48.738;9.226;2023-05-07T01:06:37;3.73;;;3.43;;
1378;SDS011;683;48.738;9.226;2023-05-07T01:09:07;3.43;;;3.13;;
1378;SDS011;683;48.738;9.226;2023-05-07T01:11:34;3.70;;;3.20;;
1378;SDS011;683;48.738;9.226;2023-05-07T01:14:02;6.80;;;3.47;;
1378;SDS011;683;48.738;9.226;2023-05-07T01:16:30;3.80;;;3.50;;
1378;SDS011;683;48.738;9.226;2023-05-07T01:18:58;3.27;;;2.50;;
1378;SDS011;683;48.738;9.226;2023-05-07T01:21:27;3.20;;;2.80;;
1378;SDS011;683;48.738;9.226;2023-05-07T01:24:01;3.17;;;2.90;;
1378;SDS011;683;48.738;9.226;2023-05-07T01:26:30;3.27;;;2.97;;
1378;SDS011;683;48.738;9.226;2023-05-07T01:28:58;7.83;;;3.03;;
1378;SDS011;683;48.738;9.226;2023-05-07T01:31:26;6.40;;;3.80;;
1378;SDS011;683;48.738;9.226;2023-05-07T01:33:55;3.90;;;3.63;;
1378;SDS011;683;48.738;9.226;2023-05-07T01:36:25;3.63;;;3.27;;
1378;SDS011;683;48.738;9.226;2023-05-07T01:38:54;3.77;;;3.30;;
1378;SDS011;683;48.738;9.226;2023-05-07T01:41:24;3.33;;;3.13;;
1378;SDS011;683;48.738;9.226;2023-05-07T01:43:52;3.97;;;3.67;;
1378;SDS011;683;48.738;9.226;2023-05-07T01:46:21;3.30;;;3.10;;
1378;SDS011;683;48.738;9.226;2023-05-07T01:48:49;3.50;;;3.20;;
1378;SDS011;683;48.738;9.226;2023-05-07T01:51:17;3.47;;;2.73;;
1378;SDS011;683;48.738;9.226;2023-05-07T01:53:48;2.97;;;2.70;;
1378;SDS011;683;48.738;9.226;2023-05-07T01:56:18;3.20;;;2.90;;
1378;SDS011;683;48.738;9.226;2023-05-07T01:58:47;3.17;;;2.90;;
1378;SDS011;683;48.738;9.226;2023-05-07T02:01:16;2.77;;;2.57;;
1378;SDS011;683;48.738;9.226;2023-05-07T02:03:44;3.00;;;2.80;;
1378;SDS011;683;48.738;9.226;2023-05-07T02:06:19;4.83;;;3.30;;
1378;SDS011;683;48.738;9.226;2023-05-07T02:08:47;3.30;;;3.00;;
1378;SDS011;683;48.738;9.226;2023-05-07T02:11:15;3.30;;;3.00;;
1378;SDS011;683;48.738;9.226;2023-05-07T02:13:43;3.67;;;3.40;;
1378;SDS011;683;48.738;9.226;2023-05-07T02:16:12;3.50;;;3.30;;
1378;SDS011;683;48.738;9.226;2023-05-07T02:18:40;2.87;;;2.67;;
1378;SDS011;683;48.738;9.226;2023-05-07T02:21:08;3.43;;;3.07;;
1378;SDS011;683;48.738;9.226;2023-05-07T02:23:35;4.30;;;3.40;;
1378;SDS011;683;48.738;9.226;2023-05-07T02:26:03;3.40;;;3.20;;
1378;SDS011;683;48.738;9.226;2023-05-07T02:28:31;5.57;;;3.03;;
1378;SDS011;683;48.738;9.226;2023-05-07T02:31:02;2.67;;;2.47;;
1378;SDS011;683;48.738;9.226;2023-05-07T02:33:32;2.90;;;2.70;;
1378;SDS011;683;48.738;9.226;2023-05-07T02:36:05;2.80;;;2.60;;
1378;SDS011;683;48.738;9.226;2023-05-07T02:38:35;4.00;;;3.70;;
1378;SDS011;683;48.738;9.226;2023-05-07T02:41:04;4.20;;;3.50;;
1378;SDS011;683;48.738;9.226;2023-05-07T02:43:31;3.20;;;3.00;;
1378;SDS011;683;48.738;9.226;2023-05-07T02:46:02;4.23;;;3.83;;
1378;SDS011;683;48.738;9.226;2023-05-07T02:48:34;3.60;;;3.30;;
1378;SDS011;683;48.738;9.226;2023-05-07T02:51:02;4.10;;;3.77;;
1378;SDS011;683;48.738;9.226;2023-05-07T02:53:31;3.77;;;3.47;;
1378;SDS011;683;48.738;9.226;2023-05-07T02:56:01;4.67;;;3.87;;
1378;SDS011;683;48.738;9.226;2023-05-07T02:58:29;4.53;;;4.00;;
1378;SDS011;683;48.738;9.226;2023-05-07T03:00:58;4.40;;;3.97;;
1378;SDS011;683;48.738;9.226;2023-05-07T03:03:46;4.80;;;4.30;;
1378;SDS011;683;48.738;9.226;2023-05-07T03:06:14;4.30;;;3.90;;
1378;SDS011;683;48.738;9.226;2023-05-07T03:08:42;5.10;;;3.80;;
1378;SDS011;683;48.738;9.226;2023-05-07T03:11:09;4.20;;;3.80;;
1378;SDS011;683;48.738;9.226;2023-05-07T03:13:37;5.60;;;3.60;;
1378;SDS011;683;48.738;9.226;2023-05-07T03:16:05;4.47;;;4.07;;
1378;SDS011;683;48.738;9.226;2023-05-07T03:18:33;4.60;;;4.00;;
1378;SDS011;683;48.738;9.226;2023-05-07T03:21:02;4.00;;;3.30;;
1378;SDS011;683;48.738;9.226;2023-05-07T03:23:30;5.83;;;4.40;;
1378;SDS011;683;48.738;9.226;2023-05-07T03:25:57;4.40;;;4.00;;
1378;SDS011;683;48.738;9.226;2023-05-07T03:28:25;4.43;;;4.03;;
1378;SDS011;683;48.738;9.226;2023-05-07T03:30:58;5.63;;;3.93;;
1378;SDS011;683;48.738;9.226;2023-05-07T03:33:26;4.53;;;4.13;;
1378;SDS011;683;48.738;9.226;2023-05-07T03:35:55;4.50;;;3.40;;
1378;SDS011;683;48.738;9.226;2023-05-07T03:38:26;4.27;;;3.67;;
1378;SDS011;683;48.738;9.226;2023-05-07T03:40:54;4.40;;;4.00;;
1378;SDS011;683;48.738;9.226;2023-05-07T03:43:21;4.77;;;4.23;;
1378;SDS011;683;48.738;9.226;2023-05-07T03:45:57;4.40;;;4.10;;
1378;SDS011;683;48.738;9.226;2023-05-07T03:48:26;13.00;;;5.03;;
1378;SDS011;683;48.738;9.226;2023-05-07T03:50:57;4.50;;;4.10;;
1378;SDS011;683;48.738;9.226;2023-05-07T03:53:30;4.83;;;4.00;;
1378;SDS011;683;48.738;9.226;2023-05-07T03:55:57;3.60;;;3.37;;
1378;SDS011;683;48.738;9.226;2023-05-07T03:58:26;4.93;;;4.43;;
1378;SDS011;683;48.738;9.226;2023-05-07T04:00:57;4.10;;;3.80;;
1378;SDS011;683;48.738;9.226;2023-05-07T04:03:27;3.93;;;3.63;;
1378;SDS011;683;48.738;9.226;2023-05-07T04:05:58;3.80;;;3.40;;
1378;SDS011;683;48.738;9.226;2023-05-07T04:08:26;4.23;;;3.93;;
1378;SDS011;683;48.738;9.226;2023-05-07T04:10:56;6.03;;;4.63;;
1378;SDS011;683;48.738;9.226;2023-05-07T04:13:27;9.40;;;4.90;;
1378;SDS011;683;48.738;9.226;2023-05-07T04:15:55;7.03;;;4.50;;
1378;SDS011;683;48.738;9.226;2023-05-07T04:18:24;4.60;;;3.80;;
1378;SDS011;683;48.738;9.226;2023-05-07T04:20:51;4.70;;;3.90;;
1378;SDS011;683;48.738;9.226;2023-05-07T04:23:20;4.10;;;3.80;;
1378;SDS011;683;48.738;9.226;2023-05-07T04:25:48;5.27;;;3.87;;
1378;SDS011;683;48.738;9.226;2023-05-07T04:28:22;3.70;;;3.40;;
1378;SDS011;683;48.738;9.226;2023-05-07T04:30:51;5.07;;;4.50;;
1378;SDS011;683;48.738;9.226;2023-05-07T04:33:20;5.20;;;4.80;;
1378;SDS011;683;48.738;9.226;2023-05-07T04:35:49;4.80;;;4.17;;
1378;SDS011;683;48.738;9.226;2023-05-07T04:38:17;4.50;;;4.10;;
1378;SDS011;683;48.738;9.226;2023-05-07T04:40:46;4.20;;;3.80;;
1378;SDS011;683;48.738;9.226;2023-05-07T04:43:18;4.23;;;3.90;;
1378;SDS011;683;48.738;9.226;2023-05-07T04:45:51;5.07;;;4.43;;
1378;SDS011;683;48.738;9.226;2023-05-07T04:48:21;6.17;;;4.37;;
1378;SDS011;683;48.738;9.226;2023-05-07T04:50:50;5.47;;;4.80;;
1378;SDS011;683;48.738;9.226;2023-05-07T04:53:19;5.30;;;4.20;;
1378;SDS011;683;48.738;9.226;2023-05-07T04:55:54;3.77;;;3.53;;
1378;SDS011;683;48.738;9.226;2023-05-07T04:58:24;6.60;;;3.90;;
1378;SDS011;683;48.738;9.226;2023-05-07T05:00:54;4.70;;;4.30;;
1378;SDS011;683;48.738;9.226;2023-05-07T05:03:22;4.17;;;3.87;;
1378;SDS011;683;48.738;9.226;2023-05-07T05:05:50;4.47;;;4.13;;
1378;SDS011;683;48.738;9.226;2023-05-07T05:08:20;5.03;;;4.50;;
1378;SDS011;683;48.738;9.226;2023-05-07T05:10:47;5.73;;;5.13;;
1378;SDS011;683;48.738;9.226;2023-05-07T05:13:15;5.20;;;4.57;;
1378;SDS011;683;48.738;9.226;2023-05-07T05:15:43;4.13;;;3.77;;
1378;SDS011;683;48.738;9.226;2023-05-07T05:18:12;6.77;;;6.07;;
1378;SDS011;683;48.738;9.226;2023-05-07T05:20:40;5.53;;;4.53;;
1378;SDS011;683;48.738;9.226;2023-05-07T05:23:08;5.70;;;5.20;;
1378;SDS011;683;48.738;9.226;2023-05-07T05:25:36;4.77;;;4.27;;
1378;SDS011;683;48.738;9.226;2023-05-07T05:28:04;4.90;;;4.17;;
1378;SDS011;683;48.738;9.226;2023-05-07T05:30:33;4.83;;;3.80;;
1378;SDS011;683;48.738;9.226;2023-05-07T05:33:01;4.67;;;4.27;;
1378;SDS011;683;48.738;9.226;2023-05-07T05:35:30;4.60;;;4.20;;
1378;SDS011;683;48.738;9.226;2023-05-07T05:38:02;6.00;;;4.87;;
1378;SDS011;683;48.738;9.226;2023-05-07T05:40:30;7.60;;;4.47;;
1378;SDS011;683;48.738;9.226;2023-05-07T05:42:59;4.87;;;4.37;;
1378;SDS011;683;48.738;9.226;2023-05-07T05:45:27;5.23;;;4.00;;
1378;SDS011;683;48.738;9.226;2023-05-07T05:47:55;3.80;;;3.50;;
1378;SDS011;683;48.738;9.226;2023-05-07T05:50:23;5.20;;;4.73;;
1378;SDS011;683;48.738;9.226;2023-05-07T05:52:53;3.80;;;3.50;;
1378;SDS011;683;48.738;9.226;2023-05-07T05:55:22;5.87;;;4.13;;
1378;SDS011;683;48.738;9.226;2023-05-07T05:57:50;4.30;;;3.60;;
1378;SDS011;683;48.738;9.226;2023-05-07T06:00:19;4.80;;;4.40;;
1378;SDS011;683;48.738;9.226;2023-05-07T06:02:54;4.90;;;4.50;;
1378;SDS011;683;48.738;9.226;2023-05-07T06:05:24;4.90;;;4.03;;
1378;SDS011;683;48.738;9.226;2023-05-07T06:07:55;4.13;;;3.73;;
1378;SDS011;683;48.738;9.226;2023-05-07T06:10:25;4.13;;;3.83;;
1378;SDS011;683;48.738;9.226;2023-05-07T06:12:53;4.67;;;4.17;;
1378;SDS011;683;48.738;9.226;2023-05-07T06:15:21;4.13;;;3.77;;
1378;SDS011;683;48.738;9.226;2023-05-07T06:17:50;4.70;;;4.30;;
1378;SDS011;683;48.738;9.226;2023-05-07T06:20:17;3.97;;;3.67;;
1378;SDS011;683;48.738;9.226;2023-05-07T06:22:45;4.73;;;4.33;;
1378;SDS011;683;48.738;9.226;2023-05-07T06:25:16;6.43;;;4.70;;
1378;SDS011;683;48.738;9.226;2023-05-07T06:27:43;6.50;;;4.63;;
1378;SDS011;683;48.738;9.226;2023-05-07T06:30:11;4.77;;;4.40;;
1378;SDS011;683;48.738;9.226;2023-05-07T06:32:40;6.03;;;4.53;;
1378;SDS011;683;48.738;9.226;2023-05-07T06:35:08;4.47;;;4.10;;
1378;SDS011;683;48.738;9.226;2023-05-07T06:37:38;3.73;;;3.43;;
1378;SDS011;683;48.738;9.226;2023-05-07T06:40:12;5.10;;;4.70;;
1378;SDS011;683;48.738;9.226;2023-05-07T06:42:42;4.93;;;4.27;;
1378;SDS011;683;48.738;9.226;2023-05-07T06:45:32;5.90;;;5.37;;
1378;SDS011;683;48.738;9.226;2023-05-07T06:48:01;4.83;;;4.43;;
1378;SDS011;683;48.738;9.226;2023-05-07T06:50:32;4.77;;;4.30;;
1378;SDS011;683;48.738;9.226;2023-05-07T06:53:00;5.53;;;4.53;;
1378;SDS011;683;48.738;9.226;2023-05-07T06:55:28;4.97;;;4.57;;
1378;SDS011;683;48.738;9.226;2023-05-07T06:57:58;6.33;;;5.70;;
1378;SDS011;683;48.738;9.226;2023-05-07T07:00:27;5.30;;;4.40;;
1378;SDS011;683;48.738;9.226;2023-05-07T07:02:55;5.00;;;4.60;;
1378;SDS011;683;48.738;9.226;2023-05-07T07:05:26;4.97;;;4.53;;
1378;SDS011;683;48.738;9.226;2023-05-07T07:07:55;5.10;;;4.70;;
1378;SDS011;683;48.738;9.226;2023-05-07T07:10:23;6.00;;;4.17;;
1378;SDS011;683;48.738;9.226;2023-05-07T07:12:52;6.17;;;4.47;;
1378;SDS011;683;48.738;9.226;2023-05-07T07:15:22;4.17;;;3.87;;
1378;SDS011;683;48.738;9.226;2023-05-07T07:17:51;5.30;;;4.80;;
1378;SDS011;683;48.738;9.226;2023-05-07T07:20:19;4.93;;;4.53;;
1378;SDS011;683;48.738;9.226;2023-05-07T07:22:47;5.20;;;4.77;;
1378;SDS011;683;48.738;9.226;2023-05-07T07:25:16;4.37;;;4.00;;
1378;SDS011;683;48.738;9.226;2023-05-07T07:27:44;5.47;;;4.97;;
1378;SDS011;683;48.738;9.226;2023-05-07T07:30:13;5.37;;;4.97;;
1378;SDS011;683;48.738;9.226;2023-05-07T07:32:46;6.70;;;6.10;;
1378;SDS011;683;48.738;9.226;2023-05-07T07:35:15;6.93;;;5.20;;
1378;SDS011;683;48.738;9.226;2023-05-07T07:37:43;4.80;;;4.40;;
1378;SDS011;683;48.738;9.226;2023-05-07T07:40:13;6.37;;;4.67;;
1378;SDS011;683;48.738;9.226;2023-05-07T07:42:42;4.73;;;4.33;;
1378;SDS011;683;48.738;9.226;2023-05-07T07:45:10;5.33;;;4.90;;
1378;SDS011;683;48.738;9.226;2023-05-07T07:47:42;4.87;;;4.47;;
1378;SDS011;683;48.738;9.226;2023-05-07T07:50:12;5.60;;;5.00;;
1378;SDS011;683;48.738;9.226;2023-05-07T07:52:40;5.20;;;4.80;;
1378;SDS011;683;48.738;9.226;2023-05-07T07:55:08;4.57;;;4.27;;
1378;SDS011;683;48.738;9.226;2023-05-07T07:57:38;4.83;;;4.40;;
1378;SDS011;683;48.738;9.226;2023-05-07T08:00:06;6.00;;;4.80;;
1378;SDS011;683;48.738;9.226;2023-05-07T08:02:42;4.60;;;4.30;;
1378;SDS011;683;48.738;9.226;2023-05-07T08:05:17;5.23;;;4.73;;
1378;SDS011;683;48.738;9.226;2023-05-07T08:07:47;4.67;;;4.27;;
1378;SDS011;683;48.738;9.226;2023-05-07T08:10:21;6.57;;;5.80;;
1378;SDS011;683;48.738;9.226;2023-05-07T08:12:53;5.10;;;4.70;;
1378;SDS011;683;48.738;9.226;2023-05-07T08:15:21;4.50;;;4.10;;
1378;SDS011;683;48.738;9.226;2023-05-07T08:17:49;5.30;;;4.80;;
1378;SDS011;683;48.738;9.226;2023-05-07T08:20:19;5.30;;;4.80;;
1378;SDS011;683;48.738;9.226;2023-05-07T08:22:47;4.33;;;3.93;;
1378;SDS011;683;48.738;9.226;2023-05-07T08:25:15;4.93;;;4.53;;
1378;SDS011;683;48.738;9.226;2023-05-07T08:27:43;6.47;;;4.90;;
1378;SDS011;683;48.738;9.226;2023-05-07T08:30:12;3.97;;;3.67;;
1378;SDS011;683;48.738;9.226;2023-05-07T08:32:41;4.20;;;3.80;;
1378;SDS011;683;48.738;9.226;2023-05-07T08:35:08;4.57;;;4.27;;
1378;SDS011;683;48.738;9.226;2023-05-07T08:37:38;5.43;;;5.03;;
1378;SDS011;683;48.738;9.226;2023-05-07T08:40:06;4.90;;;4.60;;
1378;SDS011;683;48.738;9.226;2023-05-07T08:42:35;5.67;;;4.17;;
1378;SDS011;683;48.738;9.226;2023-05-07T08:45:04;5.10;;;4.40;;
1378;SDS011;683;48.738;9.226;2023-05-07T08:47:40;5.53;;;4.93;;
1378;SDS011;683;48.738;9.226;2023-05-07T08:50:11;5.10;;;4.70;;
1378;SDS011;683;48.738;9.226;2023-05-07T08:52:41;4.70;;;4.30;;
1378;SDS011;683;48.738;9.226;2023-05-07T08:55:09;4.27;;;3.97;;
1378;SDS011;683;48.738;9.226;2023-05-07T08:57:37;4.63;;;4.20;;
1378;SDS011;683;48.738;9.226;2023-05-07T09:00:06;4.23;;;3.93;;
1378;SDS011;683;48.738;9.226;2023-05-07T09:02:36;3.83;;;3.53;;
1378;SDS011;683;48.738;9.226;2023-05-07T09:05:07;4.00;;;3.53;;
1378;SDS011;683;48.738;9.226;2023-05-07T09:07:36;4.57;;;4.17;;
1378;SDS011;683;48.738;9.226;2023-05-07T09:10:08;4.30;;;4.00;;
1378;SDS011;683;48.738;9.226;2023-05-07T09:12:39;5.37;;;4.07;;
1378;SDS011;683;48.738;9.226;2023-05-07T09:15:09;3.70;;;3.40;;
1378;SDS011;683;48.738;9.226;2023-05-07T09:17:38;3.87;;;3.57;;
1378;SDS011;683;48.738;9.226;2023-05-07T09:20:08;4.50;;;4.10;;
1378;SDS011;683;48.738;9.226;2023-05-07T09:22:37;3.50;;;3.20;;
1378;SDS011;683;48.738;9.226;2023-05-07T09:25:10;3.00;;;2.80;;
1378;SDS011;683;48.738;9.226;2023-05-07T09:27:38;4.70;;;4.40;;
1378;SDS011;683;48.738;9.226;2023-05-07T09:30:08;4.83;;;3.60;;
1378;SDS011;683;48.738;9.226;2023-05-07T09:32:37;4.53;;;4.13;;
1378;SDS011;683;48.738;9.226;2023-05-07T09:35:14;4.33;;;4.03;;
1378;SDS011;683;48.738;9.226;2023-05-07T09:37:43;4.50;;;4.10;;
1378;SDS011;683;48.738;9.226;2023-05-07T09:40:21;5.17;;;3.83;;
1378;SDS011;683;48.738;9.226;2023-05-07T09:42:50;7.23;;;4.47;;
1378;SDS011;683;48.738;9.226;2023-05-07T09:45:22;3.93;;;3.60;;
1378;SDS011;683;48.738;9.226;2023-05-07T09:47:53;4.83;;;3.00;;
1378;SDS011;683;48.738;9.226;2023-05-07T09:50:25;6.23;;;4.17;;
1378;SDS011;683;48.738;9.226;2023-05-07T09:52:55;4.33;;;4.00;;
1378;SDS011;683;48.738;9.226;2023-05-07T09:55:26;3.83;;;3.53;;
1378;SDS011;683;48.738;9.226;2023-05-07T09:57:55;6.33;;;3.57;;
1378;SDS011;683;48.738;9.226;2023-05-07T10:00:26;3.30;;;3.07;;
1378;SDS011;683;48.738;9.226;2023-05-07T10:03:03;4.60;;;4.30;;
1378;SDS011;683;48.738;9.226;2023-05-07T10:05:53;5.33;;;3.70;;
1378;SDS011;683;48.738;9.226;2023-05-07T10:08:21;4.90;;;3.90;;
1378;SDS011;683;48.738;9.226;2023-05-07T10:10:55;3.50;;;3.20;;
1378;SDS011;683;48.738;9.226;2023-05-07T10:13:25;5.13;;;3.97;;
1378;SDS011;683;48.738;9.226;2023-05-07T10:15:56;4.17;;;3.77;;
1378;SDS011;683;48.738;9.226;2023-05-07T10:18:28;4.90;;;3.30;;
1378;SDS011;683;48.738;9.226;2023-05-07T10:21:06;2.93;;;2.73;;
1378;SDS011;683;48.738;9.226;2023-05-07T10:23:35;3.20;;;2.90;;
1378;SDS011;683;48.738;9.226;2023-05-07T10:26:06;3.03;;;2.83;;
1378;SDS011;683;48.738;9.226;2023-05-07T10:28:37;3.57;;;3.27;;
1378;SDS011;683;48.738;9.226;2023-05-07T10:31:16;3.60;;;3.30;;
1378;SDS011;683;48.738;9.226;2023-05-07T10:33:56;4.80;;;3.23;;
1378;SDS011;683;48.738;9.226;2023-05-07T10:36:26;3.03;;;2.83;;
1378;SDS011;683;48.738;9.226;2023-05-07T10:38:54;3.70;;;3.40;;
1378;SDS011;683;48.738;9.226;2023-05-07T10:41:25;4.37;;;3.23;;
1378;SDS011;683;48.738;9.226;2023-05-07T10:43:53;3.53;;;3.33;;
1378;SDS011;683;48.738;9.226;2023-05-07T10:46:28;4.10;;;3.57;;
1378;SDS011;683;48.738;9.226;2023-05-07T10:49:20;2.80;;;2.60;;
1378;SDS011;683;48.738;9.226;2023-05-07T10:52:10;3.93;;;2.53;;
1378;SDS011;683;48.738;9.226;2023-05-07T10:54:41;4.03;;;3.40;;
1378;SDS011;683;48.738;9.226;2023-05-07T11:03:13;4.70;;;3.30;;
1378;SDS011;683;48.738;9.226;2023-05-07T11:06:08;2.93;;;2.73;;
1378;SDS011;683;48.738;9.226;2023-05-07T11:08:54;4.53;;;3.10;;
1378;SDS011;683;48.738;9.226;2023-05-07T11:11:46;2.70;;;2.50;;
1378;SDS011;683;48.738;9.226;2023-05-07T11:14:45;2.80;;;2.60;;
1378;SDS011;683;48.738;9.226;2023-05-07T11:17:24;3.23;;;2.93;;
1378;SDS011;683;48.738;9.226;2023-05-07T11:20:01;3.20;;;2.60;;
1378;SDS011;683;48.738;9.226;2023-05-07T11:22:50;3.00;;;2.70;;
1378;SDS011;683;48.738;9.226;2023-05-07T11:25:33;3.07;;;2.87;;
1378;SDS011;683;48.738;9.226;2023-05-07T11:28:09;4.40;;;2.70;;
1378;SDS011;683;48.738;9.226;2023-05-07T11:30:44;2.20;;;2.10;;
1378;SDS011;683;48.738;9.226;2023-05-07T11:33:17;3.10;;;2.80;;
1378;SDS011;683;48.738;9.226;2023-05-07T11:35:46;8.23;;;4.33;;
1378;SDS011;683;48.738;9.226;2023-05-07T11:38:17;2.63;;;2.43;;
1378;SDS011;683;48.738;9.226;2023-05-07T11:40:49;3.07;;;2.77;;
1378;SDS011;683;48.738;9.226;2023-05-07T11:43:17;4.73;;;2.70;;
1378;SDS011;683;48.738;9.226;2023-05-07T11:45:47;3.13;;;2.87;;
1378;SDS011;683;48.738;9.226;2023-05-07T11:48:16;3.30;;;3.00;;
1378;SDS011;683;48.738;9.226;2023-05-07T11:50:50;3.00;;;2.60;;
1378;SDS011;683;48.738;9.226;2023-05-07T11:53:18;2.87;;;2.57;;
1378;SDS011;683;48.738;9.226;2023-05-07T11:55:46;4.53;;;3.33;;
1378;SDS011;683;48.738;9.226;2023-05-07T11:58:20;2.60;;;2.33;;
1378;SDS011;683;48.738;9.226;2023-05-07T12:00:50;2.70;;;2.50;;
1378;SDS011;683;48.738;9.226;2023-05-07T12:03:18;3.27;;;2.97;;
1378;SDS011;683;48.738;9.226;2023-05-07T12:05:46;2.83;;;2.50;;
1378;SDS011;683;48.738;9.226;2023-05-07T12:08:14;2.67;;;2.47;;
1378;SDS011;683;48.738;9.226;2023-05-07T12:10:42;3.60;;;2.60;;
1378;SDS011;683;48.738;9.226;2023-05-07T12:13:14;3.17;;;2.70;;
1378;SDS011;683;48.738;9.226;2023-05-07T12:15:42;2.63;;;2.43;;
1378;SDS011;683;48.738;9.226;2023-05-07T12:18:11;2.97;;;2.17;;
1378;SDS011;683;48.738;9.226;2023-05-07T12:20:40;3.07;;;2.87;;
1378;SDS011;683;48.738;9.226;2023-05-07T12:23:08;3.20;;;3.00;;
1378;SDS011;683;48.738;9.226;2023-05-07T12:25:36;1.90;;;1.80;;
1378;SDS011;683;48.738;9.226;2023-05-07T12:28:04;3.20;;;3.00;;
1378;SDS011;683;48.738;9.226;2023-05-07T12:30:32;4.20;;;2.97;;
1378;SDS011;683;48.738;9.226;2023-05-07T12:33:04;4.83;;;3.90;;
1378;SDS011;683;48.738;9.226;2023-05-07T12:35:41;5.90;;;4.87;;
1378;SDS011;683;48.738;9.226;2023-05-07T12:38:09;2.93;;;2.70;;
1378;SDS011;683;48.738;9.226;2023-05-07T12:40:39;3.03;;;2.77;;
1378;SDS011;683;48.738;9.226;2023-05-07T12:43:14;3.00;;;2.80;;
1378;SDS011;683;48.738;9.226;2023-05-07T12:45:43;3.13;;;2.90;;
1378;SDS011;683;48.738;9.226;2023-05-07T12:48:12;3.17;;;2.90;;
1378;SDS011;683;48.738;9.226;2023-05-07T12:50:41;8.33;;;3.27;;
1378;SDS011;683;48.738;9.226;2023-05-07T12:53:10;2.17;;;1.93;;
1378;SDS011;683;48.738;9.226;2023-05-07T12:55:42;7.80;;;1.70;;
1378;SDS011;683;48.738;9.226;2023-05-07T12:58:17;2.07;;;1.87;;
1378;SDS011;683;48.738;9.226;2023-05-07T13:00:47;2.27;;;2.07;;
1378;SDS011;683;48.738;9.226;2023-05-07T13:03:23;2.90;;;1.70;;
1378;SDS011;683;48.738;9.226;2023-05-07T13:05:58;2.17;;;2.00;;
1378;SDS011;683;48.738;9.226;2023-05-07T13:08:28;3.67;;;2.20;;
1378;SDS011;683;48.738;9.226;2023-05-07T13:10:57;5.73;;;2.67;;
1378;SDS011;683;48.738;9.226;2023-05-07T13:13:29;2.87;;;2.23;;
1378;SDS011;683;48.738;9.226;2023-05-07T13:15:56;5.60;;;2.30;;
1378;SDS011;683;48.738;9.226;2023-05-07T13:18:24;4.88;;;2.65;;
1378;SDS011;683;48.738;9.226;2023-05-07T13:20:52;4.60;;;4.20;;
1378;SDS011;683;48.738;9.226;2023-05-07T13:23:21;5.53;;;4.20;;
1378;SDS011;683;48.738;9.226;2023-05-07T13:25:50;4.33;;;3.60;;
1378;SDS011;683;48.738;9.226;2023-05-07T13:28:19;5.35;;;3.60;;
1378;SDS011;683;48.738;9.226;2023-05-07T13:30:47;3.30;;;2.97;;
1378;SDS011;683;48.738;9.226;2023-05-07T13:33:15;3.30;;;3.00;;
1378;SDS011;683;48.738;9.226;2023-05-07T13:35:42;6.23;;;3.80;;
1378;SDS011;683;48.738;9.226;2023-05-07T13:38:10;4.10;;;3.73;;
1378;SDS011;683;48.738;9.226;2023-05-07T13:40:39;6.10;;;3.20;;
1378;SDS011;683;48.738;9.226;2023-05-07T13:43:07;6.90;;;3.57;;
1378;SDS011;683;48.738;9.226;2023-05-07T13:45:36;4.20;;;3.40;;
1378;SDS011;683;48.738;9.226;2023-05-07T13:48:03;3.33;;;3.03;;
1378;SDS011;683;48.738;9.226;2023-05-07T13:50:31;4.63;;;3.40;;
1378;SDS011;683;48.738;9.226;2023-05-07T13:52:59;2.87;;;2.67;;
1378;SDS011;683;48.738;9.226;2023-05-07T13:55:28;4.80;;;3.37;;
1378;SDS011;683;48.738;9.226;2023-05-07T13:57:58;4.23;;;2.50;;
1378;SDS011;683;48.738;9.226;2023-05-07T14:00:27;3.60;;;3.30;;
1378;SDS011;683;48.738;9.226;2023-05-07T14:02:56;4.67;;;3.30;;
1378;SDS011;683;48.738;9.226;2023-05-07T14:05:24;3.53;;;2.70;;
1378;SDS011;683;48.738;9.226;2023-05-07T14:07:53;6.07;;;2.97;;
1378;SDS011;683;48.738;9.226;2023-05-07T14:10:22;5.60;;;4.13;;
1378;SDS011;683;48.738;9.226;2023-05-07T14:12:50;5.77;;;3.93;;
1378;SDS011;683;48.738;9.226;2023-05-07T14:15:19;4.00;;;3.60;;
1378;SDS011;683;48.738;9.226;2023-05-07T14:17:47;5.40;;;3.93;;
1378;SDS011;683;48.738;9.226;2023-05-07T14:20:14;4.50;;;4.07;;
1378;SDS011;683;48.738;9.226;2023-05-07T14:22:42;5.20;;;4.27;;
1378;SDS011;683;48.738;9.226;2023-05-07T14:25:10;4.87;;;4.50;;
1378;SDS011;683;48.738;9.226;2023-05-07T14:27:38;6.33;;;4.47;;
1378;SDS011;683;48.738;9.226;2023-05-07T14:30:06;4.70;;;4.37;;
1378;SDS011;683;48.738;9.226;2023-05-07T14:32:36;5.90;;;5.30;;
1378;SDS011;683;48.738;9.226;2023-05-07T14:35:04;5.83;;;4.80;;
1378;SDS011;683;48.738;9.226;2023-05-07T14:37:32;4.77;;;4.33;;
1378;SDS011;683;48.738;9.226;2023-05-07T14:39:59;5.80;;;5.40;;
1378;SDS011;683;48.738;9.226;2023-05-07T14:42:28;6.40;;;5.23;;
1378;SDS011;683;48.738;9.226;2023-05-07T14:44:55;5.30;;;4.90;;
1378;SDS011;683;48.738;9.226;2023-05-07T14:47:23;6.00;;;5.50;;
1378;SDS011;683;48.738;9.226;2023-05-07T14:49:52;8.00;;;6.53;;
1378;SDS011;683;48.738;9.226;2023-05-07T14:52:20;7.10;;;6.40;;
1378;SDS011;683;48.738;9.226;2023-05-07T14:54:48;6.53;;;5.93;;
1378;SDS011;683;48.738;9.226;2023-05-07T14:57:16;9.20;;;5.90;;
1378;SDS011;683;48.738;9.226;2023-05-07T14:59:44;5.90;;;5.17;;
1378;SDS011;683;48.738;9.226;2023-05-07T15:02:12;5.23;;;4.60;;
1378;SDS011;683;48.738;9.226;2023-05-07T15:04:40;5.37;;;4.87;;
1378;SDS011;683;48.738;9.226;2023-05-07T15:07:12;6.13;;;5.57;;
1378;SDS011;683;48.738;9.226;2023-05-07T15:09:40;6.13;;;5.57;;
1378;SDS011;683;48.738;9.226;2023-05-07T15:12:10;5.77;;;5.17;;
1378;SDS011;683;48.738;9.226;2023-05-07T15:14:38;5.93;;;4.60;;
1378;SDS011;683;48.738;9.226;2023-05-07T15:17:06;4.93;;;4.53;;
1378;SDS011;683;48.738;9.226;2023-05-07T15:19:34;8.00;;;4.97;;
1378;SDS011;683;48.738;9.226;2023-05-07T15:22:01;4.37;;;4.07;;
1378;SDS011;683;48.738;9.226;2023-05-07T15:24:31;8.07;;;5.17;;
1378;SDS011;683;48.738;9.226;2023-05-07T15:26:58;5.10;;;4.70;;
1378;SDS011;683;48.738;9.226;2023-05-07T15:29:27;5.57;;;5.17;;
1378;SDS011;683;48.738;9.226;2023-05-07T15:31:56;7.87;;;7.00;;
1378;SDS011;683;48.738;9.226;2023-05-07T15:34:24;5.73;;;4.93;;
1378;SDS011;683;48.738;9.226;2023-05-07T15:36:51;5.67;;;5.20;;
1378;SDS011;683;48.738;9.226;2023-05-07T15:39:19;5.30;;;4.90;;
1378;SDS011;683;48.738;9.226;2023-05-07T15:41:48;5.37;;;4.97;;
1378;SDS011;683;48.738;9.226;2023-05-07T15:44:16;4.07;;;3.77;;
1378;SDS011;683;48.738;9.226;2023-05-07T15:46:43;3.30;;;3.10;;
1378;SDS011;683;48.738;9.226;2023-05-07T15:49:12;4.20;;;3.43;;
1378;SDS011;683;48.738;9.226;2023-05-07T15:51:39;3.40;;;3.20;;